createdAt,value
2022-11-10T00:00:24.034Z,73.10
2022-11-10T00:02:50.834Z,73.30
2022-11-10T00:05:17.872Z,73.10
2022-11-10T00:07:44.720Z,73.20
2022-11-10T00:10:12.094Z,73.10
2022-11-10T00:12:39.215Z,73.20
2022-11-10T00:15:25.176Z,73.40
2022-11-10T00:17:52.007Z,73.30
2022-11-10T00:20:18.989Z,73.20
2022-11-10T00:22:45.810Z,73.30
2022-11-10T00:25:12.827Z,73.30
2022-11-10T00:27:39.885Z,73.30
2022-11-10T00:30:07.038Z,73.20
2022-11-10T00:32:33.883Z,73.30
2022-11-10T00:35:00.881Z,73.30
2022-11-10T00:37:27.807Z,73.40
2022-11-10T00:39:54.620Z,73.40
2022-11-10T00:42:21.573Z,73.40
2022-11-10T00:44:48.404Z,73.50
2022-11-10T00:47:15.301Z,73.50
2022-11-10T00:49:42.457Z,73.50
2022-11-10T00:52:09.361Z,73.70
2022-11-10T00:54:54.959Z,73.60
2022-11-10T00:57:21.782Z,73.70
2022-11-10T01:00:08.729Z,73.70
2022-11-10T01:02:35.755Z,73.70
2022-11-10T01:05:02.618Z,73.50
2022-11-10T01:07:29.455Z,73.50
2022-11-10T01:09:56.259Z,73.70
2022-11-10T01:12:23.094Z,73.60
2022-11-10T01:14:49.891Z,73.70
2022-11-10T01:17:16.912Z,73.90
2022-11-10T01:20:02.185Z,73.90
2022-11-10T01:22:30.253Z,73.70
2022-11-10T01:24:57.074Z,73.90
2022-11-10T01:27:42.373Z,73.80
2022-11-10T01:30:09.506Z,74.00
2022-11-10T01:32:56.042Z,74.10
2022-11-10T01:35:23.030Z,74.10
2022-11-10T01:38:04.943Z,74.20
2022-11-10T01:40:31.855Z,74.00
2022-11-10T01:42:58.891Z,74.00
2022-11-10T01:45:25.814Z,74.00
2022-11-10T01:47:59.847Z,74.00
2022-11-10T01:50:42.004Z,74.10
2022-11-10T01:53:13.320Z,74.10
2022-11-10T01:55:45.081Z,74.00
2022-11-10T01:58:15.076Z,74.00
2022-11-10T02:00:43.317Z,74.10
2022-11-10T02:03:24.752Z,74.00
2022-11-10T02:05:52.097Z,74.10
2022-11-10T02:08:37.826Z,74.10
2022-11-10T02:11:04.977Z,74.20
2022-11-10T02:13:31.802Z,74.20
2022-11-10T02:15:58.863Z,74.30
2022-11-10T02:18:26.391Z,74.20
2022-11-10T02:20:53.371Z,74.30
2022-11-10T02:23:34.155Z,74.20
2022-11-10T02:26:05.396Z,74.30
2022-11-10T02:28:37.040Z,74.30
2022-11-10T02:31:04.972Z,74.50
2022-11-10T02:33:32.060Z,74.60
2022-11-10T02:35:58.893Z,74.60
2022-11-10T02:38:25.672Z,74.70
2022-11-10T02:40:52.477Z,74.50
2022-11-10T02:43:39.062Z,74.60
2022-11-10T02:46:06.122Z,74.70
2022-11-10T02:48:33.714Z,74.60
2022-11-10T02:51:00.538Z,74.60
2022-11-10T02:53:27.334Z,74.50
2022-11-10T02:55:54.140Z,74.50
2022-11-10T02:58:20.937Z,74.50
2022-11-10T03:00:47.756Z,74.30
2022-11-10T03:03:14.572Z,74.30
2022-11-10T03:05:41.476Z,74.30
2022-11-10T03:08:08.324Z,74.40
2022-11-10T03:10:55.466Z,74.40
2022-11-10T03:13:24.340Z,74.30
2022-11-10T03:15:57.266Z,75.00
2022-11-10T03:18:24.442Z,74.20
2022-11-10T03:20:51.496Z,74.20
2022-11-10T03:23:19.793Z,74.20
2022-11-10T03:25:47.109Z,74.30
2022-11-10T03:28:14.143Z,74.10
2022-11-10T03:30:59.135Z,74.10
2022-11-10T03:33:26.177Z,74.00
2022-11-10T03:35:53.082Z,74.20
2022-11-10T03:38:20.230Z,74.00
2022-11-10T03:41:17.101Z,74.00
2022-11-10T03:43:33.847Z,73.90
2022-11-10T03:46:00.741Z,73.80
2022-11-10T03:48:27.763Z,73.80
2022-11-10T03:50:54.574Z,73.80
2022-11-10T03:53:21.712Z,73.80
2022-11-10T03:55:48.837Z,73.90
2022-11-10T03:58:15.670Z,73.90
2022-11-10T04:00:42.448Z,73.90
2022-11-10T04:03:09.412Z,73.80
2022-11-10T04:06:13.046Z,73.70
2022-11-10T04:08:58.138Z,73.50
2022-11-10T04:11:43.728Z,73.50
2022-11-10T04:14:28.922Z,73.50
2022-11-10T04:16:56.411Z,73.50
2022-11-10T04:19:23.400Z,73.60
2022-11-10T04:21:50.355Z,73.60
2022-11-10T04:24:17.401Z,73.50
2022-11-10T04:26:45.112Z,73.70
2022-11-10T04:29:12.460Z,73.90
2022-11-10T04:31:42.505Z,73.70
2022-11-10T04:34:12.394Z,73.70
2022-11-10T04:36:41.921Z,73.70
2022-11-10T04:39:09.431Z,73.70
2022-11-10T04:41:36.620Z,73.70
2022-11-10T04:44:03.916Z,73.60
2022-11-10T04:46:36.719Z,73.50
2022-11-10T04:49:05.236Z,73.50
2022-11-10T04:51:35.651Z,73.60
2022-11-10T04:54:03.900Z,73.50
2022-11-10T04:56:30.878Z,73.50
2022-11-10T04:58:57.766Z,73.50
2022-11-10T05:01:28.263Z,73.60
2022-11-10T05:04:13.516Z,73.50
2022-11-10T05:06:40.427Z,73.50
2022-11-10T05:09:07.339Z,73.60
2022-11-10T05:11:34.150Z,73.60
2022-11-10T05:14:00.986Z,73.50
2022-11-10T05:16:27.939Z,73.60
2022-11-10T05:19:04.057Z,73.70
2022-11-10T05:21:31.200Z,73.90
2022-11-10T05:23:57.980Z,73.80
2022-11-10T05:26:24.841Z,73.80
2022-11-10T05:29:03.632Z,73.90
2022-11-10T05:31:30.574Z,74.10
2022-11-10T05:33:58.226Z,74.00
2022-11-10T05:36:25.012Z,74.00
2022-11-10T05:38:51.925Z,74.00
2022-11-10T05:41:18.843Z,74.10
2022-11-10T05:44:04.192Z,74.10
2022-11-10T05:46:32.011Z,74.30
2022-11-10T05:49:17.464Z,74.20
2022-11-10T05:51:44.367Z,74.10
2022-11-10T05:54:11.135Z,74.10
2022-11-10T05:56:37.918Z,73.90
2022-11-10T05:59:04.851Z,74.50
2022-11-10T06:01:31.687Z,73.70
2022-11-10T06:03:58.587Z,73.50
2022-11-10T06:06:28.190Z,73.70
2022-11-10T06:09:13.654Z,73.60
2022-11-10T06:11:40.460Z,73.60
2022-11-10T06:14:07.242Z,73.50
2022-11-10T06:16:34.081Z,73.30
2022-11-10T06:19:01.745Z,73.30
2022-11-10T06:21:28.583Z,73.30
2022-11-10T06:23:55.417Z,73.00
2022-11-10T06:26:22.287Z,72.90
2022-11-10T06:28:49.133Z,72.80
2022-11-10T06:31:16.019Z,72.80
2022-11-10T06:33:43.088Z,72.70
2022-11-10T06:36:16.501Z,72.60
2022-11-10T06:38:43.324Z,72.70
2022-11-10T06:41:10.407Z,72.70
2022-11-10T06:43:37.224Z,72.60
2022-11-10T06:46:04.165Z,72.70
2022-11-10T06:48:31.025Z,72.80
2022-11-10T06:51:01.854Z,72.90
2022-11-10T06:53:47.667Z,73.00
2022-11-10T06:56:14.570Z,73.10
2022-11-10T06:58:41.384Z,73.00
2022-11-10T07:01:08.393Z,73.10
2022-11-10T07:03:38.790Z,73.20
2022-11-10T07:06:11.463Z,73.40
2022-11-10T07:08:56.932Z,73.50
2022-11-10T07:11:23.993Z,73.70
2022-11-10T07:13:50.831Z,73.90
2022-11-10T07:16:23.254Z,73.80
2022-11-10T07:19:03.229Z,73.90
2022-11-10T07:21:30.379Z,74.00
2022-11-10T07:23:57.250Z,74.30
2022-11-10T07:26:24.139Z,74.20
2022-11-10T07:28:51.075Z,74.10
2022-11-10T07:31:18.087Z,74.00
2022-11-10T07:34:03.367Z,74.20
2022-11-10T07:36:30.180Z,74.20
2022-11-10T07:38:57.047Z,74.30
2022-11-10T07:41:23.877Z,74.30
2022-11-10T07:44:09.022Z,74.30
2022-11-10T07:46:35.888Z,74.30
2022-11-10T07:49:02.861Z,74.40
2022-11-10T07:51:30.788Z,74.30
2022-11-10T07:54:00.489Z,74.20
2022-11-10T07:56:45.761Z,74.10
2022-11-10T07:59:12.634Z,74.00
2022-11-10T08:01:39.528Z,74.10
2022-11-10T08:04:08.903Z,74.10
2022-11-10T08:06:36.808Z,74.20
2022-11-10T08:09:03.847Z,74.40
2022-11-10T08:11:36.777Z,74.30
2022-11-10T08:14:03.672Z,74.50
2022-11-10T08:16:30.530Z,74.40
2022-11-10T08:19:12.820Z,74.50
2022-11-10T08:21:39.737Z,74.50
2022-11-10T08:24:08.387Z,74.60
2022-11-10T08:26:47.529Z,74.60
2022-11-10T08:29:14.397Z,74.80
2022-11-10T08:31:41.353Z,74.80
2022-11-10T08:34:08.293Z,75.00
2022-11-10T08:36:35.236Z,75.00
2022-11-10T08:39:04.999Z,75.20
2022-11-10T08:41:31.880Z,75.70
2022-11-10T08:43:59.180Z,75.40
2022-11-10T08:46:26.087Z,76.40
2022-11-10T08:49:06.082Z,75.70
2022-11-10T08:51:38.732Z,75.80
2022-11-10T08:54:06.116Z,75.70
2022-11-10T08:56:33.644Z,75.70
2022-11-10T08:59:19.146Z,76.00
2022-11-10T09:01:46.186Z,76.10
2022-11-10T09:04:15.808Z,76.10
2022-11-10T09:06:42.912Z,76.00
2022-11-10T09:09:10.696Z,76.00
2022-11-10T09:11:37.500Z,76.00
2022-11-10T09:14:04.269Z,76.00
2022-11-10T09:16:49.844Z,75.90
2022-11-10T09:19:19.796Z,76.00
2022-11-10T09:21:46.974Z,75.70
2022-11-10T09:24:13.855Z,75.80
2022-11-10T09:26:41.176Z,75.80
2022-11-10T09:29:08.057Z,75.90
2022-11-10T09:31:34.892Z,75.80
2022-11-10T09:34:01.776Z,75.70
2022-11-10T09:36:31.380Z,75.60
2022-11-10T09:39:16.811Z,75.70
2022-11-10T09:41:45.000Z,75.60
2022-11-10T09:44:44.305Z,75.70
2022-11-10T09:47:50.708Z,75.70
2022-11-10T09:50:21.820Z,75.60
2022-11-10T09:52:52.393Z,75.40
2022-11-10T09:55:31.837Z,75.50
2022-11-10T09:57:59.970Z,75.70
2022-11-10T10:00:31.283Z,75.60
2022-11-10T10:03:06.198Z,75.60
2022-11-10T10:05:36.006Z,75.50
2022-11-10T10:08:24.694Z,75.60
2022-11-10T10:11:26.635Z,75.50
2022-11-10T10:14:21.833Z,75.30
2022-11-10T10:17:13.490Z,75.40
2022-11-10T10:19:58.974Z,75.40
2022-11-10T10:22:51.972Z,75.40
2022-11-10T10:25:22.741Z,75.30
2022-11-10T10:27:58.170Z,75.40
2022-11-10T10:30:25.101Z,75.30
2022-11-10T10:32:57.965Z,75.20
2022-11-10T10:35:25.127Z,75.20
2022-11-10T10:37:55.752Z,75.00
2022-11-10T10:40:24.945Z,75.00
2022-11-10T10:43:10.380Z,74.70
2022-11-10T10:45:42.180Z,74.70
2022-11-10T10:48:30.015Z,74.50
2022-11-10T10:50:56.814Z,74.10
2022-11-10T10:53:24.866Z,74.00
2022-11-10T10:56:02.588Z,74.00
2022-11-10T10:58:49.630Z,73.90
2022-11-10T11:01:16.635Z,73.90
2022-11-10T11:04:06.754Z,74.40
2022-11-10T11:06:35.364Z,73.40
2022-11-10T11:09:20.098Z,73.60
2022-11-10T11:12:25.563Z,72.80
2022-11-10T11:14:54.450Z,72.00
2022-11-10T11:17:22.981Z,72.00
2022-11-10T11:19:58.600Z,71.90
2022-11-10T11:23:14.632Z,71.80
2022-11-10T11:25:43.914Z,71.40
2022-11-10T11:28:16.764Z,71.50
2022-11-10T11:31:05.216Z,71.20
2022-11-10T11:33:36.997Z,71.30
2022-11-10T11:36:25.667Z,71.00
2022-11-10T11:39:38.254Z,71.00
2022-11-10T11:42:25.948Z,70.70
2022-11-10T11:45:37.946Z,70.90
2022-11-10T11:48:16.278Z,70.30
2022-11-10T11:50:51.937Z,70.70
2022-11-10T11:53:41.487Z,70.60
2022-11-10T11:56:08.776Z,70.50
2022-11-10T11:59:07.187Z,70.40
2022-11-10T12:02:18.755Z,70.10
2022-11-10T12:04:46.513Z,69.80
2022-11-10T12:07:43.012Z,70.20
2022-11-10T12:10:31.489Z,69.70
2022-11-10T12:13:32.498Z,69.40
2022-11-10T12:16:08.686Z,69.50
2022-11-10T12:18:49.740Z,69.40
2022-11-10T12:21:24.476Z,69.30
2022-11-10T12:24:10.660Z,69.50
2022-11-10T12:26:59.744Z,69.40
2022-11-10T12:29:45.823Z,69.30
2022-11-10T12:32:43.171Z,69.10
2022-11-10T12:35:24.570Z,68.70
2022-11-10T12:38:14.250Z,68.30
2022-11-10T12:40:47.271Z,68.30
2022-11-10T12:43:36.752Z,68.80
2022-11-10T12:46:08.010Z,68.50
2022-11-10T12:48:50.678Z,68.50
2022-11-10T12:51:29.785Z,68.50
2022-11-10T12:53:56.721Z,69.20
2022-11-10T12:56:52.914Z,68.50
2022-11-10T12:59:40.712Z,68.10
2022-11-10T13:02:34.122Z,68.50
2022-11-10T13:05:29.684Z,67.70
2022-11-10T13:08:32.891Z,67.60
2022-11-10T13:11:05.448Z,67.80
2022-11-10T13:13:47.685Z,67.80
2022-11-10T13:16:40.585Z,67.80
2022-11-10T13:19:09.273Z,67.50
2022-11-10T13:21:51.275Z,68.00
2022-11-10T13:24:42.548Z,67.50
2022-11-10T13:27:32.651Z,67.90
2022-11-10T13:30:10.036Z,68.00
2022-11-10T13:32:37.384Z,68.10
2022-11-10T13:35:29.346Z,68.00
2022-11-10T13:37:59.313Z,67.70
2022-11-10T13:40:39.812Z,67.90
2022-11-10T13:43:19.588Z,67.80
2022-11-10T13:45:47.832Z,67.80
2022-11-10T13:48:25.535Z,67.90
2022-11-10T13:51:32.935Z,67.80
2022-11-10T13:54:44.453Z,67.50
2022-11-10T13:57:36.028Z,67.60
2022-11-10T14:00:28.088Z,67.70
2022-11-10T14:03:01.310Z,67.90
2022-11-10T14:05:41.945Z,68.00
2022-11-10T14:08:31.081Z,68.20
2022-11-10T14:11:02.261Z,68.30
2022-11-10T14:13:46.517Z,68.20
2022-11-10T14:16:23.849Z,68.20
2022-11-10T14:19:20.300Z,68.40
2022-11-10T14:21:58.433Z,68.10
2022-11-10T14:24:34.892Z,68.30
2022-11-10T14:27:24.766Z,68.70
2022-11-10T14:30:05.764Z,68.10
2022-11-10T14:32:33.009Z,68.10
2022-11-10T14:35:01.040Z,68.10
2022-11-10T14:37:46.420Z,67.80
2022-11-10T14:40:18.862Z,68.10
2022-11-10T14:42:47.602Z,68.00
2022-11-10T14:45:21.842Z,68.10
2022-11-10T14:48:00.075Z,68.00
2022-11-10T14:50:33.589Z,67.90
2022-11-10T14:53:15.995Z,68.30
2022-11-10T14:56:04.512Z,68.10
2022-11-10T14:58:40.386Z,68.20
2022-11-10T15:01:08.018Z,68.10
2022-11-10T15:03:42.684Z,68.20
2022-11-10T15:06:12.692Z,68.30
2022-11-10T15:08:58.582Z,68.20
2022-11-10T15:11:49.893Z,68.20
2022-11-10T15:14:39.679Z,68.50
2022-11-10T15:17:14.707Z,68.60
2022-11-10T15:20:00.204Z,68.70
2022-11-10T15:22:34.325Z,68.90
2022-11-10T15:25:23.096Z,69.60
2022-11-10T15:28:03.701Z,69.80
2022-11-10T15:30:56.400Z,69.80
2022-11-10T15:33:30.074Z,70.00
2022-11-10T15:36:28.266Z,69.90
2022-11-10T15:39:23.237Z,70.00
2022-11-10T15:42:13.167Z,70.30
2022-11-10T15:44:40.056Z,70.20
2022-11-10T15:47:12.133Z,70.10
2022-11-10T15:49:43.424Z,70.20
2022-11-10T15:52:30.912Z,70.20
2022-11-10T15:54:57.917Z,70.00
2022-11-10T15:57:33.463Z,70.20
2022-11-10T16:00:03.663Z,70.00
2022-11-10T16:02:49.225Z,70.10
2022-11-10T16:05:16.141Z,70.10
2022-11-10T16:08:01.566Z,70.20
2022-11-10T16:10:30.459Z,70.10
2022-11-10T16:12:57.381Z,70.10
2022-11-10T16:15:24.192Z,70.10
2022-11-10T16:18:13.854Z,70.10
2022-11-10T16:20:41.037Z,70.10
2022-11-10T16:23:26.331Z,70.20
2022-11-10T16:25:55.685Z,70.10
2022-11-10T16:28:44.238Z,70.10
2022-11-10T16:31:11.773Z,70.10
2022-11-10T16:33:38.726Z,70.30
2022-11-10T16:36:06.030Z,70.30
2022-11-10T16:38:33.129Z,70.50
2022-11-10T16:41:01.992Z,70.60
2022-11-10T16:43:31.303Z,70.70
2022-11-10T16:46:00.764Z,70.80
2022-11-10T16:48:30.623Z,70.90
2022-11-10T16:50:59.765Z,71.00
2022-11-10T16:53:45.504Z,71.00
2022-11-10T16:56:16.984Z,71.20
2022-11-10T16:59:02.240Z,71.30
2022-11-10T17:01:31.093Z,71.30
2022-11-10T17:04:01.056Z,71.50
2022-11-10T17:06:31.029Z,71.60
2022-11-10T17:09:22.141Z,71.80
2022-11-10T17:11:49.254Z,71.80
2022-11-10T17:14:16.648Z,72.00
2022-11-10T17:16:45.529Z,71.90
2022-11-10T17:19:25.069Z,72.00
2022-11-10T17:21:54.106Z,72.10
2022-11-10T17:24:21.674Z,72.40
2022-11-10T17:26:48.807Z,72.50
2022-11-10T17:29:21.233Z,72.50
2022-11-10T17:31:50.474Z,72.50
2022-11-10T17:34:17.457Z,72.50
2022-11-10T17:36:53.183Z,72.40
2022-11-10T17:39:20.191Z,72.40
2022-11-10T17:41:47.227Z,72.30
2022-11-10T17:44:15.900Z,72.40
2022-11-10T17:46:42.924Z,72.40
2022-11-10T17:49:09.859Z,72.50
2022-11-10T17:51:37.539Z,73.20
2022-11-10T17:54:05.809Z,72.60
2022-11-10T17:56:33.165Z,72.60
2022-11-10T17:59:00.379Z,72.60
2022-11-10T18:01:27.244Z,72.50
2022-11-10T18:03:54.204Z,72.60
2022-11-10T18:06:21.558Z,72.70
2022-11-10T18:08:48.755Z,72.60
2022-11-10T18:11:18.190Z,72.60
2022-11-10T18:13:45.785Z,72.70
2022-11-10T18:16:16.959Z,72.60
2022-11-10T18:19:02.020Z,72.70
2022-11-10T18:21:29.096Z,72.80
2022-11-10T18:24:14.316Z,72.90
2022-11-10T18:26:41.309Z,73.00
2022-11-10T18:29:08.106Z,73.00
2022-11-10T18:31:37.924Z,73.10
2022-11-10T18:34:04.945Z,73.10
2022-11-10T18:36:31.854Z,73.20
2022-11-10T18:38:58.730Z,73.20
2022-11-10T18:41:50.351Z,73.20
2022-11-10T18:44:17.961Z,73.30
2022-11-10T18:46:45.282Z,73.30
2022-11-10T18:49:13.021Z,73.20
2022-11-10T18:51:40.127Z,73.20
2022-11-10T18:54:25.812Z,73.20
2022-11-10T18:56:53.343Z,73.30
2022-11-10T18:59:20.175Z,73.30
2022-11-10T19:01:47.451Z,73.30
2022-11-10T19:04:14.789Z,73.20
2022-11-10T19:06:41.945Z,73.20
2022-11-10T19:09:12.471Z,73.40
2022-11-10T19:11:39.589Z,73.40
2022-11-10T19:14:06.554Z,73.40
2022-11-10T19:16:33.777Z,73.40
2022-11-10T19:19:01.804Z,73.40
2022-11-10T19:21:28.856Z,73.50
2022-11-10T19:23:59.018Z,73.60
2022-11-10T19:26:41.046Z,73.60
2022-11-10T19:29:07.951Z,73.50
2022-11-10T19:31:51.103Z,74.30
2022-11-10T19:34:19.049Z,73.40
2022-11-10T19:36:46.512Z,73.50
2022-11-10T19:39:13.780Z,73.50
2022-11-10T19:41:41.293Z,73.50
2022-11-10T19:44:10.816Z,73.60
2022-11-10T19:46:56.801Z,73.50
2022-11-10T19:49:23.723Z,73.50
2022-11-10T19:52:09.606Z,73.50
2022-11-10T19:54:36.569Z,73.60
2022-11-10T19:57:03.467Z,73.50
2022-11-10T19:59:30.476Z,73.50
2022-11-10T20:01:59.376Z,73.50
2022-11-10T20:04:26.744Z,73.50
2022-11-10T20:07:20.930Z,73.40
2022-11-10T20:09:47.868Z,73.50
2022-11-10T20:12:14.746Z,73.40
2022-11-10T20:14:41.662Z,73.40
2022-11-10T20:17:08.527Z,73.30
2022-11-10T20:19:40.854Z,73.20
2022-11-10T20:22:26.743Z,73.20
2022-11-10T20:24:53.696Z,73.10
2022-11-10T20:27:32.659Z,73.10
2022-11-10T20:29:59.638Z,73.10
2022-11-10T20:32:27.309Z,72.90
2022-11-10T20:34:54.228Z,72.90
2022-11-10T20:37:21.317Z,72.80
2022-11-10T20:39:48.232Z,72.90
2022-11-10T20:42:15.057Z,72.90
2022-11-10T20:44:42.015Z,72.80
2022-11-10T20:47:09.025Z,72.70
2022-11-10T20:49:35.849Z,72.80
2022-11-10T20:52:03.315Z,72.80
2022-11-10T20:54:32.913Z,73.00
2022-11-10T20:57:02.351Z,73.00
2022-11-10T20:59:29.240Z,73.00
2022-11-10T21:01:56.241Z,73.20
2022-11-10T21:04:23.054Z,73.20
2022-11-10T21:06:52.836Z,73.30
2022-11-10T21:09:38.585Z,73.20
2022-11-10T21:12:41.098Z,73.00
2022-11-10T21:15:08.258Z,72.90
2022-11-10T21:17:35.072Z,72.80
2022-11-10T21:20:01.963Z,72.80
2022-11-10T21:22:28.857Z,72.90
2022-11-10T21:24:55.717Z,72.90
2022-11-10T21:27:22.736Z,72.90
2022-11-10T21:29:49.547Z,72.80
2022-11-10T21:32:16.336Z,72.80
2022-11-10T21:34:43.297Z,72.70
2022-11-10T21:37:10.143Z,72.70
2022-11-10T21:39:38.633Z,72.80
2022-11-10T21:42:05.807Z,72.80
2022-11-10T21:44:32.692Z,72.80
2022-11-10T21:46:59.692Z,72.80
2022-11-10T21:49:26.589Z,72.80
2022-11-10T21:51:53.503Z,72.80
2022-11-10T21:54:38.941Z,72.80
2022-11-10T21:57:05.881Z,72.80
2022-11-10T21:59:32.729Z,72.70
2022-11-10T22:01:59.646Z,72.70
2022-11-10T22:04:26.539Z,72.70
2022-11-10T22:07:11.889Z,72.80
2022-11-10T22:10:00.154Z,73.00
2022-11-10T22:12:45.355Z,73.30
2022-11-10T22:15:34.260Z,73.20
2022-11-10T22:18:19.986Z,73.20
2022-11-10T22:20:47.128Z,73.50
2022-11-10T22:23:14.151Z,73.40
2022-11-10T22:25:41.143Z,73.40
2022-11-10T22:28:08.277Z,73.50
2022-11-10T22:30:36.742Z,73.50
2022-11-10T22:33:23.893Z,73.50
2022-11-10T22:35:57.490Z,73.30
2022-11-10T22:38:25.310Z,73.40
2022-11-10T22:41:11.322Z,73.30
2022-11-10T22:43:56.670Z,73.20
2022-11-10T22:46:45.842Z,73.40
2022-11-10T22:49:15.513Z,73.40
2022-11-10T22:51:44.725Z,73.40
2022-11-10T22:54:20.055Z,73.30
2022-11-10T22:56:48.285Z,73.30
2022-11-10T22:59:19.064Z,73.30
2022-11-10T23:01:46.507Z,73.30
2022-11-10T23:04:15.954Z,73.30
2022-11-10T23:06:43.571Z,73.30
2022-11-10T23:09:29.187Z,73.30
2022-11-10T23:11:56.083Z,73.40
2022-11-10T23:14:31.795Z,73.40
2022-11-10T23:17:17.233Z,73.30
2022-11-10T23:19:44.151Z,73.40
2022-11-10T23:22:11.091Z,73.30
2022-11-10T23:24:40.524Z,73.30
2022-11-10T23:27:07.334Z,73.20
2022-11-10T23:29:34.202Z,73.30
2022-11-10T23:32:01.168Z,73.40
2022-11-10T23:34:28.005Z,73.40
2022-11-10T23:37:13.464Z,73.20
2022-11-10T23:39:40.496Z,73.40
2022-11-10T23:42:22.186Z,73.50
2022-11-10T23:44:49.108Z,73.40
2022-11-10T23:47:16.407Z,73.30
2022-11-10T23:49:55.422Z,73.40
2022-11-10T23:52:22.222Z,73.20
2022-11-10T23:54:49.196Z,73.20
2022-11-10T23:57:34.577Z,73.30
